x

Grays Reef - 40 Nm Southeast Of Savannah, Ga (41008) Wave Buoy

9:50pm - Sun 30th Aug 2015 All times are EDT. -4 hours from GMT.

  • Sig Wave height 5.2ft
  • Swell Direction
  • Peak Period 10s
  • Average Period 5s
  • Wind
    16mph, 20mph gusts
  • Sea Temp 84°f
  • Air Temp 80°f
  • Sea Pressure 1017mb
  • Grays Reef - 40 Nm Southeast Of Savannah, Ga
  • Grays Reef - 40 Nm Southeast Of Savannah, Ga

More Historic Weather Station data

Upgrade to MSW Pro to gain access to the past 30 days of data for over 8000 Wavebouys and Weather Stations around the globe.

Join Pro

Comparision Forecast

View Surf forecast
   
Sun 08/30 9:50pm 5ft 10s 5s 16 20 mph 1017mb 84f 80f
8:50pm 5ft 5s 5s 22 27 mph 1016.7mb 84f 79f
7:50pm 5ft 9s 5s 20 25 mph 1017.2mb 84f 79f
6:50pm 5ft 11s 5s 22 27 mph 1017.1mb 84f 79f
5:50pm 5.5ft 10s 5s 20 25 mph 1017mb 84f 79f
4:50pm 5ft 10s 5s 22 27 mph 1017.2mb 84f 79f
3:50pm 5ft 11s 5s 18 25 mph 1017.3mb 84f 79f
2:50pm 4.5ft 11s 5s 18 22 mph 1018.2mb 84f 79f
1:50pm 4ft 11s 5s 20 25 mph 1018.7mb 84f 79f
12:50pm 4ft 11s 6s 20 22 mph 1018.2mb 84f 80f
11:50am 4ft 11s 6s 11 13 mph 1018.7mb 84f 82f
10:50am 4.5ft 11s 6s 11 13 mph 1018.7mb 84f 82f
8:50am 4.5ft 11s 6s 7 9 mph 1018.5mb 84f 81f
7:50am 5ft 11s 5s 7 9 mph 1018mb 84f 81f
6:50am 4.5ft 11s 5s 4 7 mph 1018mb 84f 80f
5:50am 5ft 11s 5s 13 16 mph 1018.1mb 85f 81f
4:50am 4.5ft 11s 5s 7 9 mph 1017mb 85f 81f
3:50am 4.5ft 11s 5s 18 22 mph 1017.2mb 85f 81f
2:50am 4ft 11s 5s 18 20 mph 1017.5mb 85f 82f
1:50am 3.5ft 11s 6s 13 18 mph 1018.8mb 85f 82f
12:50am 3.5ft 11s 5s 13 18 mph 1018.8mb 85f 83f
Sat 08/29 11:50pm 4ft 11s 6s 13 16 mph 1019.4mb 85f 82f
10:50pm 4ft 11s 6s 13 16 mph 1018.9mb 85f 82f
9:50pm 4ft 11s 5s 13 16 mph 1019mb 85f 81f
8:50pm 4ft 11s 5s 11 16 mph 1018.7mb 85f 81f
7:50pm 4ft 11s 5s 16 18 mph 1018.5mb 85f 81f
6:50pm 4.5ft 11s 5s 18 20 mph 1018.2mb 85f 80f
5:50pm 4.5ft 11s 5s 18 22 mph 1018.5mb 85f 80f
4:50pm 4.5ft 11s 5s 20 22 mph 1018.5mb 85f 79f
3:50pm 4ft 11s 5s 20 25 mph 1019.2mb 85f 79f
2:50pm 3.5ft 11s 5s 16 20 mph 1020mb 85f 79f
1:50pm 3.5ft 11s 5s 13 18 mph 1020.4mb 85f 80f
12:50pm 3.5ft 6s 4s 16 20 mph 1020.8mb 85f 79f
11:50am 3.5ft 5s 4s 16 20 mph 1020.8mb 85f 78f
10:50am 3.5ft 11s 4s 16 18 mph 1020.8mb 85f 78f
9:50am 3.5ft 6s 5s 4 7 mph 1020.4mb 85f 82f
8:50am 3.5ft 6s 5s 11 13 mph 1019.8mb 85f 83f
7:50am 3.5ft 6s 5s 13 16 mph 1019.7mb 85f 82f
6:50am 3.5ft 6s 5s 11 13 mph 1018.9mb 85f 81f
5:50am 3.5ft 6s 5s 13 16 mph 1018.4mb 85f 82f
4:50am 3.5ft 6s 5s 11 13 mph 1018.6mb 85f 82f
3:50am 3.5ft 6s 5s 9 11 mph 1018.6mb 85f 83f
2:50am 3ft 5s 5s 9 11 mph 1018.8mb 85f 82f
1:50am 3ft 5s 4s 9 11 mph 1019.2mb 85f 83f
12:50am 3.5ft 5s 4s 11 13 mph 1019.4mb 85f 83f
Fri 08/28 11:50pm 3ft 5s 4s 13 18 mph 1019.4mb 85f 83f
10:50pm 3ft 9s 4s 13 16 mph 1019.7mb 85f 83f
9:50pm 2.5ft 10s 4s 13 16 mph 1019.4mb 85f 81f
8:50pm 2.5ft 9s 5s 13 16 mph 1018.5mb 85f 83f
7:50pm 2.5ft 9s 5s 13 16 mph 1018mb 85f 82f
6:50pm 2.5ft 4s 4s 11 13 mph 1017.7mb 85f 82f
5:50pm 3ft 8s 4s 16
mph
1017.4mb 85f 82f
4:50pm 3ft 8s 4s 13 16 mph 1018mb 85f 82f
3:50pm 3ft 8s 4s 13 16 mph 1018.2mb 85f 82f
2:50pm 2.5ft 8s 4s 13 16 mph 1018.7mb 86f 82f
1:50pm 2.5ft 8s 5s 11 13 mph 1019mb 85f 83f
12:50pm 2.5ft 9s 5s 13 16 mph 1019.2mb 85f 82f
11:50am 2.5ft 9s 5s 13 16 mph 1019.2mb 85f 83f
10:50am 2ft 10s 5s 11 13 mph 1018.9mb 85f 83f
9:50am 2.5ft 9s 5s 7 11 mph 1018.3mb 85f 83f
8:50am 2.5ft 9s 5s 9 11 mph 1017.5mb 85f 83f
7:50am 2.5ft 9s 5s 11 13 mph 1017mb 85f 83f
6:50am 2.5ft 9s 5s 9 11 mph 1016.5mb 85f 82f
5:50am 2.5ft 9s 5s 11
mph
1016.1mb 85f 82f
4:50am 2.5ft 9s 4s 9 11 mph 1015.9mb 85f 82f
3:50am 2.5ft 9s 5s 11 13 mph 1016.1mb 85f 82f
2:50am 2.5ft 9s 4s 11 13 mph 1016.2mb 85f 82f
1:50am 2.5ft 10s 5s 13 16 mph 1016.4mb 85f 83f
12:50am 2.5ft 10s 5s 11 13 mph 1016.4mb 85f 83f
Thu 08/27 11:50pm 2.5ft 10s 5s 13 16 mph 1016.7mb 85f 82f
10:50pm 2.5ft 10s 5s 13 18 mph 1016.3mb 85f 81f
9:50pm 2.5ft 10s 5s 13 16 mph 1015.7mb 85f 81f
8:50pm 2.5ft 10s 5s 9 11 mph 1014.9mb 85f 82f
7:50pm 3ft 10s 5s 9 11 mph 1014.3mb 85f 82f
6:50pm 3.5ft 10s 5s 9 11 mph 1014.1mb 85f 83f
5:50pm 3.5ft 5s 4s 7 9 mph 1014.2mb 86f 83f
4:50pm 4ft 5s 4s 9 13 mph 1013.9mb 86f 83f
3:50pm 4ft 5s 4s 16 18 mph 1014mb 86f 82f
2:50pm 3.5ft 10s 5s 11 16 mph 1014.5mb 86f 83f
1:50pm 2.5ft 10s 6s 9 11 mph 1014.8mb 86f 82f
12:50pm 2ft 10s 6s 9 11 mph 1015.1mb 86f 82f
11:50am 2.5ft 10s 6s 7 9 mph 1015.5mb 85f 82f
10:50am 2ft 11s 5s 7 9 mph 1015.3mb 85f 81f
9:50am 2ft 11s 5s 4
mph
1014.9mb 85f 81f
8:50am 2ft 11s 5s 7 9 mph 1014.3mb 85f 81f
7:50am 2.5ft 11s 5s 9 11 mph 1013.5mb 85f 81f
6:50am 2.5ft 11s 4s 4 9 mph 1012.9mb 85f 81f
5:50am 2.5ft 11s 4s 7 9 mph 1012.8mb 85f 81f
4:50am 2.5ft 11s 4s 11 13 mph 1012.2mb 85f 81f
3:50am 2.5ft 11s 4s 11 13 mph 1012.5mb 85f 81f